createdAt,value
2019-03-04T00:00:54.849Z,76.96
2019-03-04T00:01:58.513Z,76.73
2019-03-04T00:03:01.180Z,76.73
2019-03-04T00:04:04.848Z,76.99
2019-03-04T00:05:07.524Z,76.19
2019-03-04T00:06:10.216Z,76.34
2019-03-04T00:07:12.883Z,76.34
2019-03-04T00:08:15.737Z,76.06
2019-03-04T00:09:19.523Z,76.85
2019-03-04T00:10:25.265Z,76.41
2019-03-04T00:11:27.895Z,76.65
2019-03-04T00:12:30.550Z,76.74
2019-03-04T00:13:35.056Z,76.20
2019-03-04T00:14:39.607Z,76.16
2019-03-04T00:15:42.298Z,75.25
2019-03-04T00:16:45.219Z,75.73
2019-03-04T00:17:48.310Z,75.56
2019-03-04T00:18:51.058Z,75.39
2019-03-04T00:19:53.795Z,75.92
2019-03-04T00:20:59.273Z,76.02
2019-03-04T00:22:01.920Z,75.63
2019-03-04T00:23:04.878Z,75.75
2019-03-04T00:24:07.611Z,75.75
2019-03-04T00:25:10.243Z,75.66
2019-03-04T00:26:12.886Z,75.45
2019-03-04T00:27:15.521Z,75.45
2019-03-04T00:28:18.227Z,75.29
2019-03-04T00:29:20.936Z,75.29
2019-03-04T00:30:23.590Z,75.43
2019-03-04T00:31:29.374Z,74.46
2019-03-04T00:32:32.030Z,75.57
2019-03-04T00:33:34.774Z,74.91
2019-03-04T00:34:37.522Z,74.71
2019-03-04T00:35:40.505Z,74.70
2019-03-04T00:36:43.219Z,75.07
2019-03-04T00:37:49.124Z,75.31
2019-03-04T00:38:53.692Z,74.90
2019-03-04T00:39:56.422Z,75.79
2019-03-04T00:40:59.125Z,74.95
2019-03-04T00:42:02.085Z,75.63
2019-03-04T00:43:04.774Z,75.63
2019-03-04T00:44:07.438Z,76.79
2019-03-04T00:45:10.135Z,77.83
2019-03-04T00:46:12.885Z,77.42
2019-03-04T00:47:15.953Z,77.64
2019-03-04T00:48:18.922Z,77.64
2019-03-04T00:49:21.704Z,75.94
2019-03-04T00:50:24.362Z,75.94
2019-03-04T00:51:27.067Z,75.85
2019-03-04T00:52:29.716Z,75.85
2019-03-04T00:53:32.484Z,74.87
2019-03-04T00:54:35.441Z,73.97
2019-03-04T00:55:38.125Z,74.03
2019-03-04T00:56:40.842Z,74.57
2019-03-04T00:57:43.564Z,74.24
2019-03-04T00:58:46.220Z,74.10
2019-03-04T00:59:48.883Z,74.40
2019-03-04T01:00:51.974Z,74.75
2019-03-04T01:01:54.666Z,73.95
2019-03-04T01:02:57.314Z,72.46
2019-03-04T01:04:00.060Z,72.90
2019-03-04T01:05:03.142Z,73.40
2019-03-04T01:06:05.803Z,73.17
2019-03-04T01:07:10.919Z,72.88
2019-03-04T01:08:13.625Z,72.47
2019-03-04T01:09:16.555Z,72.48
2019-03-04T01:10:19.215Z,72.93
2019-03-04T01:11:21.985Z,73.89
2019-03-04T01:12:24.655Z,72.11
2019-03-04T01:13:29.512Z,72.00
2019-03-04T01:14:32.193Z,72.45
2019-03-04T01:15:34.872Z,71.89
2019-03-04T01:16:37.584Z,71.65
2019-03-04T01:17:40.285Z,71.44
2019-03-04T01:18:43.045Z,71.34
2019-03-04T01:19:46.052Z,71.87
2019-03-04T01:20:48.760Z,71.80
2019-03-04T01:21:51.417Z,71.80
2019-03-04T01:22:54.067Z,71.60
2019-03-04T01:23:56.705Z,71.49
2019-03-04T01:24:59.400Z,71.49
2019-03-04T01:26:02.365Z,72.12
2019-03-04T01:27:05.428Z,72.16
2019-03-04T01:28:08.049Z,73.17
2019-03-04T01:29:10.762Z,73.17
2019-03-04T01:30:13.439Z,75.72
2019-03-04T01:31:20.202Z,76.45
2019-03-04T01:32:20.735Z,76.45
2019-03-04T01:33:23.373Z,76.93
2019-03-04T01:34:26.469Z,79.65
2019-03-04T01:35:29.208Z,82.27
2019-03-04T01:36:31.976Z,82.27
2019-03-04T01:37:35.181Z,82.11
2019-03-04T01:38:38.125Z,82.55
2019-03-04T01:39:40.854Z,82.48
2019-03-04T01:40:43.645Z,82.24
2019-03-04T01:41:46.330Z,82.33
2019-03-04T01:42:49.429Z,81.82
2019-03-04T01:43:52.133Z,81.28
2019-03-04T01:44:55.144Z,81.10
2019-03-04T01:45:57.853Z,81.10
2019-03-04T01:47:00.551Z,82.24
2019-03-04T01:48:06.286Z,83.23
2019-03-04T01:49:09.039Z,84.19
2019-03-04T01:50:11.689Z,84.19
2019-03-04T01:51:17.535Z,84.39
2019-03-04T01:52:20.192Z,84.83
2019-03-04T01:53:22.842Z,84.51
2019-03-04T01:54:25.499Z,84.51
2019-03-04T01:55:28.634Z,85.99
2019-03-04T01:56:31.346Z,85.66
2019-03-04T01:57:34.004Z,85.37
2019-03-04T01:58:36.677Z,85.37
2019-03-04T01:59:39.337Z,84.96
2019-03-04T02:00:42.032Z,85.34
2019-03-04T02:01:44.751Z,85.34
2019-03-04T02:02:48.920Z,87.25
2019-03-04T02:03:51.577Z,87.56
2019-03-04T02:04:54.253Z,87.56
2019-03-04T02:05:56.970Z,88.94
2019-03-04T02:07:00.182Z,87.72
2019-03-04T02:08:02.827Z,88.19
2019-03-04T02:09:05.826Z,88.25
2019-03-04T02:10:08.446Z,88.23
2019-03-04T02:11:11.080Z,87.36
2019-03-04T02:12:13.778Z,87.61
2019-03-04T02:13:16.387Z,87.72
2019-03-04T02:14:19.056Z,87.95
2019-03-04T02:15:23.390Z,88.29
2019-03-04T02:16:26.082Z,88.29
2019-03-04T02:17:28.758Z,87.98
2019-03-04T02:18:32.473Z,88.80
2019-03-04T02:19:35.118Z,88.52
2019-03-04T02:20:38.272Z,88.81
2019-03-04T02:21:41.618Z,89.11
2019-03-04T02:22:44.332Z,88.06
2019-03-04T02:23:47.052Z,88.25
2019-03-04T02:24:50.080Z,88.30
2019-03-04T02:25:53.185Z,88.30
2019-03-04T02:26:56.172Z,88.64
2019-03-04T02:27:59.472Z,89.22
2019-03-04T02:29:02.602Z,88.42
2019-03-04T02:30:05.244Z,88.42
2019-03-04T02:31:07.930Z,87.54
2019-03-04T02:32:10.638Z,87.54
2019-03-04T02:33:13.411Z,88.35
2019-03-04T02:34:16.417Z,88.50
2019-03-04T02:35:19.080Z,88.06
2019-03-04T02:36:21.768Z,87.77
2019-03-04T02:37:24.468Z,86.88
2019-03-04T02:38:27.225Z,87.26
2019-03-04T02:39:29.937Z,88.04
2019-03-04T02:40:32.880Z,87.94
2019-03-04T02:41:35.682Z,87.63
2019-03-04T02:42:38.494Z,87.63
2019-03-04T02:43:41.614Z,88.71
2019-03-04T02:44:44.324Z,87.68
2019-03-04T02:45:46.968Z,87.91
2019-03-04T02:46:49.925Z,87.91
2019-03-04T02:47:52.581Z,88.22
2019-03-04T02:48:55.302Z,88.22
2019-03-04T02:49:57.986Z,89.09
2019-03-04T02:51:01.563Z,88.78
2019-03-04T02:52:04.613Z,89.40
2019-03-04T02:53:07.264Z,89.53
2019-03-04T02:54:10.058Z,88.72
2019-03-04T02:55:12.736Z,88.72
2019-03-04T02:56:15.480Z,88.35
2019-03-04T02:57:18.221Z,88.33
2019-03-04T02:58:21.239Z,88.66
2019-03-04T02:59:24.040Z,88.66
2019-03-04T03:00:26.752Z,88.76
2019-03-04T03:01:29.488Z,88.38
2019-03-04T03:02:32.196Z,88.24
2019-03-04T03:03:35.478Z,87.88
2019-03-04T03:04:38.968Z,88.51
2019-03-04T03:05:41.711Z,87.99
2019-03-04T03:06:44.373Z,87.99
2019-03-04T03:07:47.517Z,87.86
2019-03-04T03:08:50.224Z,88.30
2019-03-04T03:09:52.876Z,88.41
2019-03-04T03:10:56.569Z,88.19
2019-03-04T03:11:59.698Z,88.19
2019-03-04T03:13:02.364Z,87.58
2019-03-04T03:14:05.082Z,87.66
2019-03-04T03:15:07.762Z,88.11
2019-03-04T03:16:13.715Z,88.21
2019-03-04T03:17:16.724Z,87.25
2019-03-04T03:18:19.470Z,87.32
2019-03-04T03:19:22.189Z,88.17
2019-03-04T03:20:24.839Z,88.17
2019-03-04T03:21:28.034Z,87.57
2019-03-04T03:22:31.191Z,87.57
2019-03-04T03:23:34.204Z,87.25
2019-03-04T03:24:36.859Z,86.87
2019-03-04T03:25:39.586Z,86.67
2019-03-04T03:26:42.625Z,86.67
2019-03-04T03:27:45.704Z,86.58
2019-03-04T03:28:48.766Z,86.96
2019-03-04T03:29:52.161Z,87.09
2019-03-04T03:30:55.078Z,86.17
2019-03-04T03:31:58.016Z,85.95
2019-03-04T03:33:00.698Z,86.27
2019-03-04T03:34:03.449Z,86.24
2019-03-04T03:35:08.309Z,85.91
2019-03-04T03:36:10.902Z,86.14
2019-03-04T03:37:13.702Z,86.50
2019-03-04T03:38:16.378Z,86.88
2019-03-04T03:39:19.150Z,86.55
2019-03-04T03:40:21.806Z,86.16
2019-03-04T03:41:24.473Z,85.68
2019-03-04T03:42:27.468Z,86.44
2019-03-04T03:43:30.231Z,86.66
2019-03-04T03:44:33.047Z,86.66
2019-03-04T03:45:35.698Z,86.66
2019-03-04T03:46:38.376Z,85.52
2019-03-04T03:47:41.092Z,85.47
2019-03-04T03:48:45.681Z,85.33
2019-03-04T03:49:48.900Z,84.61
2019-03-04T03:50:51.579Z,84.20
2019-03-04T03:51:54.229Z,84.20
2019-03-04T03:52:56.884Z,84.53
2019-03-04T03:53:59.551Z,85.11
2019-03-04T03:55:02.698Z,84.42
2019-03-04T03:56:05.418Z,84.42
2019-03-04T03:57:08.097Z,83.27
2019-03-04T03:58:10.764Z,83.14
2019-03-04T03:59:13.427Z,83.36
2019-03-04T04:00:16.238Z,83.36
2019-03-04T04:01:19.576Z,83.10
2019-03-04T04:02:22.318Z,82.01
2019-03-04T04:03:25.424Z,81.78
2019-03-04T04:04:28.126Z,81.28
2019-03-04T04:05:30.822Z,81.44
2019-03-04T04:06:33.668Z,81.18
2019-03-04T04:07:36.608Z,81.03
2019-03-04T04:08:39.272Z,81.03
2019-03-04T04:09:41.919Z,81.42
2019-03-04T04:10:44.570Z,80.59
2019-03-04T04:11:47.871Z,80.20
2019-03-04T04:12:50.636Z,79.73
2019-03-04T04:13:54.823Z,79.72
2019-03-04T04:14:57.527Z,79.14
2019-03-04T04:16:00.174Z,79.45
2019-03-04T04:17:03.489Z,79.73
2019-03-04T04:18:06.361Z,78.67
2019-03-04T04:19:09.043Z,78.60
2019-03-04T04:20:12.068Z,79.58
2019-03-04T04:21:14.797Z,79.95
2019-03-04T04:22:17.514Z,79.71
2019-03-04T04:23:22.181Z,77.61
2019-03-04T04:24:26.356Z,78.47
2019-03-04T04:25:29.029Z,78.18
2019-03-04T04:26:35.033Z,78.15
2019-03-04T04:27:37.902Z,78.21
2019-03-04T04:28:40.713Z,77.78
2019-03-04T04:29:43.486Z,78.03
2019-03-04T04:30:46.172Z,78.04
2019-03-04T04:31:48.881Z,77.87
2019-03-04T04:32:53.460Z,78.18
2019-03-04T04:33:56.149Z,79.06
2019-03-04T04:34:58.840Z,78.92
2019-03-04T04:36:01.571Z,79.12
2019-03-04T04:37:04.295Z,79.22
2019-03-04T04:38:06.994Z,78.89
2019-03-04T04:39:10.403Z,77.98
2019-03-04T04:40:13.112Z,77.78
2019-03-04T04:41:15.881Z,77.56
2019-03-04T04:42:18.596Z,77.56
2019-03-04T04:43:24.106Z,78.45
2019-03-04T04:44:27.058Z,77.96
2019-03-04T04:45:29.727Z,77.96
2019-03-04T04:46:32.503Z,78.55
2019-03-04T04:47:35.228Z,77.50
2019-03-04T04:48:37.982Z,77.97
2019-03-04T04:49:40.620Z,77.48
2019-03-04T04:50:43.651Z,77.69
2019-03-04T04:51:46.310Z,77.36
2019-03-04T04:52:49.051Z,77.78
2019-03-04T04:53:51.932Z,76.99
2019-03-04T04:54:54.770Z,77.88
2019-03-04T04:55:57.719Z,77.88
2019-03-04T04:57:00.835Z,77.62
2019-03-04T04:58:03.547Z,77.62
2019-03-04T04:59:06.429Z,76.77
2019-03-04T05:00:09.343Z,77.05
2019-03-04T05:01:12.325Z,77.05
2019-03-04T05:02:15.274Z,76.67
2019-03-04T05:03:18.641Z,76.67
2019-03-04T05:04:21.345Z,76.69
2019-03-04T05:05:24.134Z,76.69
2019-03-04T05:06:27.273Z,77.34
2019-03-04T05:07:29.955Z,75.87
2019-03-04T05:08:32.680Z,75.29
2019-03-04T05:09:36.781Z,74.15
2019-03-04T05:10:39.455Z,73.92
2019-03-04T05:11:42.469Z,74.17
2019-03-04T05:12:45.324Z,73.93
2019-03-04T05:13:47.987Z,72.84
2019-03-04T05:14:50.836Z,74.03
2019-03-04T05:15:53.945Z,73.67
2019-03-04T05:16:59.686Z,73.66
2019-03-04T05:18:02.972Z,74.18
2019-03-04T05:19:05.785Z,73.78
2019-03-04T05:20:08.557Z,73.78
2019-03-04T05:21:11.702Z,71.89
2019-03-04T05:22:14.610Z,72.37
2019-03-04T05:23:19.003Z,72.65
2019-03-04T05:24:22.162Z,73.30
2019-03-04T05:25:25.083Z,73.04
2019-03-04T05:26:27.737Z,73.32
2019-03-04T05:27:30.423Z,72.00
2019-03-04T05:28:33.742Z,72.08
2019-03-04T05:29:36.406Z,72.28
2019-03-04T05:30:39.093Z,73.04
2019-03-04T05:31:42.143Z,73.04
2019-03-04T05:32:44.814Z,72.50
2019-03-04T05:33:47.607Z,72.66
2019-03-04T05:34:50.603Z,72.65
2019-03-04T05:35:53.244Z,73.04
2019-03-04T05:36:56.767Z,73.04
2019-03-04T05:37:59.527Z,72.41
2019-03-04T05:39:02.258Z,72.36
2019-03-04T05:40:04.950Z,72.88
2019-03-04T05:41:07.885Z,72.24
2019-03-04T05:42:10.577Z,72.39
2019-03-04T05:43:13.277Z,72.13
2019-03-04T05:44:16.054Z,72.62
2019-03-04T05:45:20.698Z,72.60
2019-03-04T05:46:23.491Z,72.37
2019-03-04T05:47:26.151Z,72.98
2019-03-04T05:48:28.863Z,73.03
2019-03-04T05:49:31.601Z,73.09
2019-03-04T05:50:37.376Z,72.62
2019-03-04T05:51:40.021Z,72.81
2019-03-04T05:52:42.846Z,72.75
2019-03-04T05:53:46.198Z,71.96
2019-03-04T05:54:48.891Z,72.28
2019-03-04T05:55:51.546Z,72.28
2019-03-04T05:56:55.267Z,72.67
2019-03-04T05:57:58.099Z,72.68
2019-03-04T05:59:00.809Z,72.40
2019-03-04T06:00:04.246Z,72.40
2019-03-04T06:01:09.022Z,72.33
2019-03-04T06:02:12.182Z,71.79
2019-03-04T06:03:14.900Z,71.86
2019-03-04T06:04:17.581Z,72.12
2019-03-04T06:05:23.172Z,72.18
2019-03-04T06:06:43.611Z,71.59
2019-03-04T06:07:58.588Z,71.59
2019-03-04T06:09:01.293Z,71.40
2019-03-04T06:10:04.168Z,71.40
2019-03-04T06:11:06.891Z,70.83
2019-03-04T06:12:10.095Z,70.68
2019-03-04T06:13:13.272Z,70.80
2019-03-04T06:14:15.935Z,70.80
2019-03-04T06:15:18.625Z,70.22
2019-03-04T06:16:21.792Z,70.22
2019-03-04T06:17:24.594Z,70.27
2019-03-04T06:18:27.280Z,70.32
2019-03-04T06:19:30.358Z,70.03
2019-03-04T06:20:33.598Z,69.84
2019-03-04T06:21:36.351Z,69.54
2019-03-04T06:22:39.096Z,68.76
2019-03-04T06:23:41.737Z,69.26
2019-03-04T06:24:44.513Z,69.11
2019-03-04T06:25:47.758Z,69.26
2019-03-04T06:26:50.453Z,69.33
2019-03-04T06:27:53.171Z,69.70
2019-03-04T06:28:55.965Z,69.85
2019-03-04T06:29:58.688Z,69.83
2019-03-04T06:43:47.567Z,69.67
2019-03-04T06:44:50.218Z,70.61
2019-03-04T06:45:53.062Z,70.48
2019-03-04T06:46:55.784Z,70.48
2019-03-04T06:47:58.506Z,69.83
2019-03-04T06:49:01.514Z,70.21
2019-03-04T06:50:04.209Z,70.21
2019-03-04T06:51:06.923Z,70.11
2019-03-04T06:52:09.620Z,70.31
2019-03-04T06:53:12.720Z,69.82
2019-03-04T06:54:15.394Z,70.59
2019-03-04T06:55:18.772Z,70.59
2019-03-04T06:56:21.527Z,70.46
2019-03-04T06:57:28.611Z,70.55
2019-03-04T06:58:28.674Z,70.80
2019-03-04T06:59:31.473Z,70.52
2019-03-04T07:00:34.988Z,70.82
2019-03-04T07:01:38.229Z,70.29
2019-03-04T07:02:41.324Z,71.06
2019-03-04T07:03:44.588Z,71.49
2019-03-04T07:04:47.255Z,70.96
2019-03-04T07:05:50.371Z,71.33
2019-03-04T07:06:53.505Z,71.33
2019-03-04T07:07:56.898Z,71.97
2019-03-04T07:08:59.644Z,76.02
2019-03-04T07:10:02.323Z,76.02
2019-03-04T07:11:08.174Z,76.30
2019-03-04T07:12:10.969Z,74.68
2019-03-04T07:13:13.772Z,74.38
2019-03-04T07:14:16.762Z,74.42
2019-03-04T07:15:19.567Z,74.42
2019-03-04T07:16:22.237Z,74.41
2019-03-04T07:17:25.340Z,75.35
2019-03-04T07:18:30.682Z,75.35
2019-03-04T07:19:33.370Z,74.29
2019-03-04T07:20:38.739Z,74.01
2019-03-04T07:21:45.115Z,74.37
2019-03-04T07:22:48.582Z,74.37
2019-03-04T07:23:51.386Z,74.08
2019-03-04T07:24:54.135Z,74.44
2019-03-04T07:26:03.967Z,74.06
2019-03-04T07:27:06.615Z,74.84
2019-03-04T07:28:12.282Z,74.83
2019-03-04T07:29:15.214Z,74.55
2019-03-04T07:30:17.957Z,74.55
2019-03-04T07:31:20.582Z,77.31
2019-03-04T07:32:23.641Z,78.06
2019-03-04T07:33:26.306Z,78.06
2019-03-04T07:34:28.961Z,83.56
2019-03-04T07:35:31.645Z,87.32
2019-03-04T07:36:34.352Z,87.32
2019-03-04T07:37:37.072Z,90.67
2019-03-04T07:38:40.133Z,91.09
2019-03-04T07:39:44.475Z,90.48
2019-03-04T07:40:47.115Z,91.84
2019-03-04T07:41:49.796Z,92.96
2019-03-04T07:42:52.529Z,92.64
2019-03-04T07:43:55.181Z,92.64
2019-03-04T07:44:58.261Z,91.72
2019-03-04T07:46:00.966Z,91.72
2019-03-04T07:47:03.756Z,93.42
2019-03-04T07:48:06.422Z,94.16
2019-03-04T07:49:09.176Z,94.52
2019-03-04T07:50:11.882Z,95.20
2019-03-04T07:51:18.165Z,94.16
2019-03-04T07:52:20.830Z,94.16
2019-03-04T07:53:25.899Z,93.64
2019-03-04T07:54:29.073Z,95.31
2019-03-04T07:55:31.816Z,95.62
2019-03-04T07:56:34.526Z,95.62
2019-03-04T07:57:37.481Z,95.42
2019-03-04T07:58:40.159Z,95.42
2019-03-04T07:59:42.886Z,94.99
2019-03-04T08:00:45.554Z,94.99
2019-03-04T08:01:48.299Z,93.19
2019-03-04T08:02:50.954Z,93.19
2019-03-04T08:03:53.891Z,92.97
2019-03-04T08:04:56.596Z,92.69
2019-03-04T08:05:59.271Z,92.69
2019-03-04T08:07:06.769Z,90.94
2019-03-04T08:08:09.437Z,90.94
2019-03-04T08:09:12.129Z,88.63
2019-03-04T08:10:20.815Z,88.90
2019-03-04T08:11:23.535Z,89.08
2019-03-04T08:12:29.035Z,89.14
2019-03-04T08:13:31.672Z,86.47
2019-03-04T08:14:34.352Z,85.36
2019-03-04T08:15:36.996Z,83.86
2019-03-04T08:16:40.193Z,83.43
2019-03-04T08:17:42.940Z,83.42
2019-03-04T08:18:45.613Z,84.13
2019-03-04T08:19:48.236Z,84.74
2019-03-04T08:20:50.884Z,84.74
2019-03-04T08:21:53.977Z,83.82
2019-03-04T08:22:57.124Z,83.82
2019-03-04T08:23:59.897Z,83.96
2019-03-04T08:25:02.580Z,82.19
2019-03-04T08:26:05.217Z,82.29
2019-03-04T08:27:08.824Z,84.05
2019-03-04T08:28:11.492Z,83.96
2019-03-04T08:29:14.579Z,84.54
2019-03-04T08:30:20.720Z,83.74
2019-03-04T08:31:25.280Z,84.46
2019-03-04T08:32:31.710Z,84.46
2019-03-04T08:33:37.078Z,83.98
2019-03-04T08:34:39.840Z,83.76
2019-03-04T08:35:43.079Z,83.84
2019-03-04T08:36:45.752Z,84.24
2019-03-04T08:37:48.404Z,83.04
2019-03-04T08:38:51.075Z,81.72
2019-03-04T08:39:53.880Z,82.45
2019-03-04T08:40:59.732Z,82.45
2019-03-04T08:42:04.887Z,81.55
2019-03-04T08:43:09.619Z,82.21
2019-03-04T08:44:12.330Z,80.74
2019-03-04T08:45:16.519Z,81.63
2019-03-04T08:46:19.749Z,80.35
2019-03-04T08:47:24.639Z,81.12
2019-03-04T08:48:30.078Z,79.71
2019-03-04T08:49:35.570Z,80.06
2019-03-04T08:50:38.334Z,76.34
2019-03-04T08:51:41.032Z,76.34
2019-03-04T08:52:43.680Z,72.60
2019-03-04T08:53:46.346Z,72.48
2019-03-04T08:54:49.389Z,75.43
2019-03-04T08:55:52.059Z,75.43
2019-03-04T08:57:03.680Z,76.91
2019-03-04T08:58:02.393Z,76.91
2019-03-04T08:59:05.049Z,77.08
2019-03-04T09:00:07.788Z,77.08
2019-03-04T09:01:10.901Z,75.81
2019-03-04T09:02:17.082Z,76.08
2019-03-04T09:03:19.832Z,76.08
2019-03-04T09:04:25.086Z,76.04
2019-03-04T09:05:29.637Z,75.95
2019-03-04T09:06:32.657Z,75.95
2019-03-04T09:07:35.376Z,75.90
2019-03-04T09:08:38.613Z,75.98
2019-03-04T09:09:41.753Z,75.98
2019-03-04T09:10:47.581Z,76.19
2019-03-04T09:11:50.264Z,74.28
2019-03-04T09:12:53.488Z,75.34
2019-03-04T09:13:56.299Z,74.13
2019-03-04T09:14:59.104Z,74.59
2019-03-04T09:16:01.790Z,75.16
2019-03-04T09:17:04.532Z,75.16
2019-03-04T09:18:08.901Z,73.43
2019-03-04T09:19:11.963Z,73.41
2019-03-04T09:20:14.733Z,71.39
2019-03-04T09:21:17.542Z,69.26
2019-03-04T09:22:20.274Z,69.81
2019-03-04T09:23:26.676Z,70.34
2019-03-04T09:24:29.334Z,67.06
2019-03-04T09:25:32.539Z,67.06
2019-03-04T09:26:35.379Z,66.22
2019-03-04T09:27:38.055Z,69.07
2019-03-04T09:28:43.170Z,68.79
2019-03-04T09:29:46.754Z,68.79
2019-03-04T09:30:49.629Z,65.84
2019-03-04T09:31:55.637Z,64.83
2019-03-04T09:32:58.410Z,64.83
2019-03-04T09:34:01.116Z,64.53
2019-03-04T09:35:04.019Z,65.56
2019-03-04T09:36:06.865Z,64.37
2019-03-04T09:37:09.790Z,62.50
2019-03-04T09:38:16.875Z,63.40
2019-03-04T09:39:19.582Z,61.38
2019-03-04T09:40:24.231Z,63.40
2019-03-04T09:41:27.142Z,62.92
2019-03-04T09:42:39.431Z,64.10
2019-03-04T09:43:42.476Z,64.10
2019-03-04T09:44:45.237Z,63.64
2019-03-04T09:45:47.901Z,62.82
2019-03-04T09:46:53.286Z,62.82
2019-03-04T09:47:57.278Z,62.95
2019-03-04T09:49:01.427Z,61.45
2019-03-04T09:50:07.242Z,61.81
2019-03-04T09:51:11.397Z,61.13
2019-03-04T09:52:14.032Z,62.22
2019-03-04T09:53:16.752Z,61.15
2019-03-04T09:54:19.537Z,61.27
2019-03-04T09:55:22.185Z,61.34
2019-03-04T09:56:25.168Z,62.16
2019-03-04T09:57:33.208Z,62.16
2019-03-04T09:58:35.897Z,62.37
2019-03-04T09:59:38.699Z,62.36
2019-03-04T10:00:41.463Z,63.13
2019-03-04T10:01:58.103Z,63.56
2019-03-04T10:03:06.787Z,63.56
2019-03-04T10:04:11.840Z,63.74
2019-03-04T10:05:15.223Z,63.90
2019-03-04T10:06:20.336Z,64.69
2019-03-04T10:07:29.097Z,64.69
2019-03-04T10:08:35.041Z,64.63
2019-03-04T10:09:37.769Z,64.63
2019-03-04T10:10:40.541Z,65.35
2019-03-04T10:11:44.442Z,65.01
2019-03-04T10:13:25.200Z,64.65
2019-03-04T10:14:02.421Z,65.28
2019-03-04T10:15:09.112Z,64.72
2019-03-04T10:16:18.622Z,65.36
2019-03-04T10:17:18.313Z,65.36
2019-03-04T10:18:23.396Z,64.81
2019-03-04T10:19:28.270Z,65.54
2019-03-04T10:20:32.390Z,66.89
2019-03-04T10:21:35.058Z,66.48
2019-03-04T10:22:40.800Z,66.48
2019-03-04T10:23:45.781Z,67.11
2019-03-04T10:24:52.000Z,68.15
2019-03-04T10:25:55.477Z,69.11
2019-03-04T10:26:59.509Z,69.32
2019-03-04T10:28:06.722Z,70.33
2019-03-04T10:29:11.344Z,70.10
2019-03-04T10:30:15.376Z,70.10
2019-03-04T10:31:18.207Z,71.27
2019-03-04T10:32:21.204Z,74.19
2019-03-04T10:33:30.196Z,74.19
2019-03-04T10:34:40.025Z,76.10
2019-03-04T10:35:45.791Z,76.10
2019-03-04T10:36:48.594Z,79.03
2019-03-04T10:37:51.452Z,79.03
2019-03-04T10:38:54.505Z,79.29
2019-03-04T10:39:57.177Z,79.29
2019-03-04T10:41:01.932Z,84.76
2019-03-04T10:42:07.497Z,86.87
2019-03-04T10:43:10.251Z,89.77
2019-03-04T10:44:13.306Z,89.95
2019-03-04T10:45:18.226Z,90.17
2019-03-04T10:46:20.796Z,91.24
2019-03-04T10:47:23.536Z,90.54
2019-03-04T10:48:26.244Z,92.27
2019-03-04T10:49:29.025Z,92.85
2019-03-04T10:50:34.861Z,94.52
2019-03-04T10:51:37.798Z,94.52
2019-03-04T10:52:44.744Z,95.04
2019-03-04T10:53:49.250Z,94.97
2019-03-04T10:54:57.082Z,94.98
2019-03-04T10:55:59.752Z,94.98
2019-03-04T10:57:03.999Z,94.45
2019-03-04T10:58:06.736Z,94.12
2019-03-04T10:59:13.272Z,94.12
2019-03-04T11:00:16.068Z,92.75
2019-03-04T11:01:30.150Z,89.78
2019-03-04T11:02:26.287Z,88.60
2019-03-04T11:03:29.357Z,87.37
2019-03-04T11:04:32.146Z,88.00
2019-03-04T11:05:34.816Z,88.00
2019-03-04T11:06:37.584Z,85.71
2019-03-04T11:07:40.672Z,85.09
2019-03-04T11:08:43.807Z,82.91
2019-03-04T11:09:47.120Z,82.36
2019-03-04T11:10:49.797Z,82.92
2019-03-04T11:11:52.536Z,82.92
2019-03-04T11:12:55.277Z,78.71
2019-03-04T11:13:58.037Z,78.46
2019-03-04T11:15:02.646Z,78.46
2019-03-04T11:16:06.877Z,58.93
2019-03-04T11:17:09.730Z,75.57
2019-03-04T11:18:12.634Z,100.00
2019-03-04T11:19:17.715Z,100.00
2019-03-04T11:20:20.792Z,73.42
2019-03-04T11:21:23.763Z,73.76
2019-03-04T11:22:26.738Z,74.49
2019-03-04T11:23:30.678Z,74.49
2019-03-04T11:24:35.866Z,73.90
2019-03-04T11:25:38.606Z,73.56
2019-03-04T11:26:43.663Z,74.94
2019-03-04T11:27:46.504Z,75.99
2019-03-04T11:28:52.289Z,73.16
2019-03-04T11:29:56.101Z,73.16
2019-03-04T11:42:56.926Z,69.25
2019-03-04T11:43:59.646Z,69.25
2019-03-04T11:45:12.631Z,68.41
2019-03-04T11:46:15.986Z,52.98
2019-03-04T11:47:23.911Z,68.18
2019-03-04T11:48:26.801Z,68.18
2019-03-04T11:49:29.867Z,67.18
2019-03-04T11:50:32.818Z,67.58
2019-03-04T11:51:35.644Z,68.07
2019-03-04T11:52:41.680Z,52.76
2019-03-04T11:53:45.031Z,68.18
2019-03-04T11:54:47.933Z,68.80
2019-03-04T11:55:50.631Z,68.80
2019-03-04T11:56:56.200Z,65.97
2019-03-04T11:58:04.696Z,65.97
2019-03-04T11:59:07.457Z,66.73
2019-03-04T12:00:10.599Z,65.22
2019-03-04T12:01:35.111Z,65.22
2019-03-04T12:02:39.366Z,68.08
2019-03-04T12:03:42.575Z,68.08
2019-03-04T12:04:45.310Z,67.58
2019-03-04T12:05:47.961Z,67.26
2019-03-04T12:06:53.821Z,67.26
2019-03-04T12:07:56.514Z,67.27
2019-03-04T12:09:04.569Z,67.27
2019-03-04T12:10:08.691Z,66.81
2019-03-04T12:11:11.378Z,66.67
2019-03-04T12:12:14.304Z,66.90
2019-03-04T12:13:17.334Z,66.90
2019-03-04T12:14:20.357Z,66.85
2019-03-04T12:15:26.347Z,67.15
2019-03-04T12:16:29.159Z,65.85
2019-03-04T12:17:33.986Z,67.13
2019-03-04T12:18:37.152Z,67.13
2019-03-04T12:19:45.908Z,66.67
2019-03-04T12:20:48.677Z,66.34
2019-03-04T12:21:54.189Z,66.43
2019-03-04T12:23:00.434Z,66.43
2019-03-04T12:24:05.937Z,66.06
2019-03-04T12:25:09.141Z,65.38
2019-03-04T12:26:14.433Z,65.38
2019-03-04T12:27:17.204Z,65.47
2019-03-04T12:28:21.106Z,64.69
2019-03-04T12:29:24.071Z,65.17
2019-03-04T12:30:27.188Z,64.64
2019-03-04T12:31:34.036Z,65.14
2019-03-04T12:32:36.965Z,65.70
2019-03-04T12:33:39.706Z,65.70
2019-03-04T12:34:42.443Z,65.03
2019-03-04T12:35:47.912Z,65.63
2019-03-04T12:36:51.063Z,65.63
2019-03-04T12:37:53.959Z,64.75
2019-03-04T12:38:56.701Z,64.77
2019-03-04T12:39:59.400Z,65.42
2019-03-04T12:41:04.312Z,65.18
2019-03-04T12:42:07.243Z,65.06
2019-03-04T12:43:09.962Z,64.35
2019-03-04T12:44:12.682Z,64.35
2019-03-04T12:45:15.403Z,64.96
2019-03-04T12:46:18.072Z,64.66
2019-03-04T12:47:23.384Z,64.66
2019-03-04T12:48:27.975Z,62.78
2019-03-04T12:49:36.991Z,62.99
2019-03-04T12:50:40.129Z,63.53
2019-03-04T12:51:42.826Z,63.47
2019-03-04T12:52:45.546Z,63.38
2019-03-04T12:53:48.764Z,63.65
2019-03-04T12:54:51.703Z,62.86
2019-03-04T12:55:54.947Z,63.79
2019-03-04T12:56:57.905Z,63.79
2019-03-04T12:58:01.103Z,63.32
2019-03-04T12:59:06.519Z,63.32
2019-03-04T13:00:09.152Z,64.42
2019-03-04T13:01:13.350Z,64.42
2019-03-04T13:02:16.275Z,68.00
2019-03-04T13:03:19.355Z,81.10
2019-03-04T13:04:24.138Z,88.81
2019-03-04T13:05:26.830Z,90.46
2019-03-04T13:06:29.684Z,94.31
2019-03-04T13:07:33.422Z,95.85
2019-03-04T13:08:39.723Z,96.24
2019-03-04T13:09:42.397Z,96.70
2019-03-04T13:10:45.074Z,97.66
2019-03-04T13:11:50.926Z,98.52
2019-03-04T13:12:56.095Z,97.87
2019-03-04T13:13:58.818Z,98.41
2019-03-04T13:15:01.775Z,98.84
2019-03-04T13:16:04.526Z,98.84
2019-03-04T13:17:13.163Z,99.18
2019-03-04T13:18:19.604Z,99.25
2019-03-04T13:19:25.393Z,99.66
2019-03-04T13:20:28.081Z,99.39
2019-03-04T13:21:32.741Z,99.54
2019-03-04T13:22:35.424Z,99.54
2019-03-04T13:23:39.358Z,99.68
2019-03-04T13:24:42.027Z,99.68
2019-03-04T13:25:47.714Z,98.76
2019-03-04T13:26:53.178Z,98.36
2019-03-04T13:28:07.753Z,97.81
2019-03-04T13:29:05.011Z,97.88
2019-03-04T13:30:07.728Z,97.88
2019-03-04T13:31:10.397Z,97.67
2019-03-04T13:32:21.259Z,97.44
2019-03-04T13:33:31.199Z,98.29
2019-03-04T13:34:34.175Z,97.77
2019-03-04T13:35:37.907Z,97.78
2019-03-04T13:36:40.582Z,97.66
2019-03-04T13:37:53.725Z,97.66
2019-03-04T13:39:04.610Z,97.71
2019-03-04T13:40:08.082Z,97.71
2019-03-04T13:41:11.740Z,97.76
2019-03-04T13:42:14.602Z,97.76
2019-03-04T13:43:25.176Z,96.60
2019-03-04T13:44:30.122Z,97.91
2019-03-04T13:45:34.967Z,98.15
2019-03-04T13:46:40.896Z,98.37
2019-03-04T13:47:43.562Z,98.24
2019-03-04T13:48:46.307Z,98.53
2019-03-04T13:49:49.205Z,98.53
2019-03-04T13:50:54.329Z,98.76
2019-03-04T13:51:57.306Z,99.34
2019-03-04T13:53:00.215Z,98.97
2019-03-04T13:54:03.469Z,98.34
2019-03-04T13:55:06.214Z,98.58
2019-03-04T13:56:09.379Z,98.52
2019-03-04T13:57:16.246Z,98.33
2019-03-04T13:58:19.256Z,98.33
2019-03-04T13:59:21.984Z,97.83
2019-03-04T14:00:27.041Z,97.03
2019-03-04T14:01:29.867Z,96.78
2019-03-04T14:02:32.515Z,96.74
2019-03-04T14:03:35.192Z,96.47